Terminal Aerodrome Forecast
Issued by NWS Bismarck, ND

Home | Current Version | Previous Version | Graphics & Text | Print | Product List | Glossary On
Versions: 1 2 3 4 5 6 7 8 9 10 11 12 13 14 15 16 17 18 19
629
FTUS43 KBIS 181732
TAFBIS
TAF
KBIS 181732Z 1818/1918 19005KT P6SM SKC
     FM190100 11006KT P6SM FEW250
     FM190800 11012KT P6SM FEW020 SCT200 WS020/15035KT
     FM191200 14013KT P6SM BKN140 WS020/18040KT
     FM191500 16015G23KT P6SM SCT015 BKN090=

USA.gov is the U.S. government's official web portal to all federal, state and local government web resources and services.